Time;durP1;ratioP1;P1;durP2;ratioP2;P2;SDS_P1;SDS_P2;PMS_P1;PMS_P2;Temp;Humidity;BMP_temperature;BMP_pressure;BME280_temperature;BME280_humidity;BME280_pressure;Samples;Min_cycle;Max_cycle;Signal;HPM_P1;HPM_P2
2024/03/17 00:00:04;;;;;;;6.07;3.70;;;;;;;;;;504766;28;1506;-74
2024/03/17 00:00:21;;;;;;;6.65;3.70;;;;;;;;;;503957;28;1327;-73
2024/03/17 00:00:37;;;;;;;6.43;3.50;;;;;;;;;;497637;28;1141;-73
2024/03/17 00:00:54;;;;;;;4.72;3.58;;;;;;;;;;503941;28;1091;-75
2024/03/17 00:01:09;;;;;;;4.47;3.60;;;;;;;;;;501691;28;1076;-74
2024/03/17 00:01:25;;;;;;;5.53;3.60;;;;;;;;;;500251;28;1199;-75
2024/03/17 00:01:43;;;;;;;5.57;3.70;;;;;;;;;;496378;28;1035;-76
2024/03/17 00:01:59;;;;;;;5.45;3.78;;;;;;;;;;503401;28;938;-75
2024/03/17 00:02:14;;;;;;;5.07;3.43;;;;;;;;;;501085;28;1260;-72
2024/03/17 00:02:30;;;;;;;4.57;3.38;;;;;;;;;;497105;28;1102;-73
2024/03/17 00:02:46;;;;;;;5.55;3.55;;;;;;;;;;497286;28;1330;-73
2024/03/17 00:03:02;;;;;;;6.60;3.78;;;;;;;;;;501308;28;1282;-73
2024/03/17 00:03:18;;;;;;;5.93;3.65;;;;;;;;;;500909;28;1192;-73
2024/03/17 00:03:33;;;;;;;5.07;3.60;;;;;;;;;;495574;28;954;-73
2024/03/17 00:03:49;;;;;;;5.72;3.70;;;;;;;;;;499347;28;1230;-75
2024/03/17 00:04:04;;;;;;;6.50;3.70;;;;;;;;;;500169;28;1146;-74
2024/03/17 00:04:20;;;;;;;5.57;3.50;;;;;;;;;;497512;28;1055;-75
2024/03/17 00:04:35;;;;;;;6.90;3.30;;;;;;;;;;493708;28;1385;-75
2024/03/17 00:04:51;;;;;;;7.03;3.50;;;;;;;;;;501710;28;1203;-75
2024/03/17 00:05:07;;;;;;;6.40;3.60;;;;;;;;;;497950;28;2019;-76
2024/03/17 00:05:22;;;;;;;6.60;3.70;;;;;;;;;;499096;28;1197;-76
2024/03/17 00:05:38;;;;;;;5.23;3.40;;;;;;;;;;493102;28;1073;-75
2024/03/17 00:05:57;;;;;;;5.03;3.50;;;;;;;;;;498627;28;1243;-73
2024/03/17 00:06:13;;;;;;;7.20;3.70;;;;;;;;;;497193;28;985;-72
2024/03/17 00:06:29;;;;;;;5.73;3.70;;;;;;;;;;498824;28;1650;-73
2024/03/17 00:06:45;;;;;;;4.45;3.60;;;;;;;;;;496807;28;1136;-75
2024/03/17 00:07:01;;;;;;;5.50;3.53;;;;;;;;;;500103;28;1286;-74
2024/03/17 00:07:16;;;;;;;5.93;3.70;;;;;;;;;;500934;28;1076;-74
2024/03/17 00:07:32;;;;;;;6.87;3.87;;;;;;;;;;495831;28;1258;-73
2024/03/17 00:07:48;;;;;;;6.88;3.80;;;;;;;;;;499061;28;1335;-74
2024/03/17 00:08:08;;;;;;;5.65;3.70;;;;;;;;;;499980;28;1211;-75
2024/03/17 00:08:23;;;;;;;5.40;3.67;;;;;;;;;;499572;28;1304;-75
2024/03/17 00:08:39;;;;;;;5.10;3.70;;;;;;;;;;491477;28;1330;-75
2024/03/17 00:08:55;;;;;;;4.85;3.45;;;;;;;;;;500821;28;1053;-74
2024/03/17 00:09:10;;;;;;;4.70;3.20;;;;;;;;;;499408;28;1591;-75
2024/03/17 00:09:26;;;;;;;5.00;3.35;;;;;;;;;;498984;28;1039;-75
2024/03/17 00:09:42;;;;;;;6.15;3.70;;;;;;;;;;493923;28;1174;-75
2024/03/17 00:09:57;;;;;;;6.30;4.10;;;;;;;;;;500071;28;1008;-72
2024/03/17 00:10:13;;;;;;;6.47;4.00;;;;;;;;;;501553;28;1218;-75
2024/03/17 00:10:28;;;;;;;5.53;3.40;;;;;;;;;;499579;28;1265;-74
2024/03/17 00:10:44;;;;;;;5.45;3.60;;;;;;;;;;498211;28;1171;-73
2024/03/17 00:10:59;;;;;;;6.57;3.80;;;;;;;;;;500529;28;1530;-73
2024/03/17 00:11:15;;;;;;;7.32;3.72;;;;;;;;;;500920;28;1160;-74
2024/03/17 00:11:30;;;;;;;6.30;3.70;;;;;;;;;;496068;28;1367;-74
2024/03/17 00:11:46;;;;;;;6.40;3.77;;;;;;;;;;497038;28;1298;-74
2024/03/17 00:12:01;;;;;;;7.23;3.80;;;;;;;;;;501706;28;993;-72
2024/03/17 00:12:17;;;;;;;6.18;3.70;;;;;;;;;;501168;28;1192;-73
2024/03/17 00:12:34;;;;;;;6.60;3.70;;;;;;;;;;493181;28;1034;-73
2024/03/17 00:12:51;;;;;;;6.53;3.88;;;;;;;;;;496182;28;1213;-74
2024/03/17 00:13:06;;;;;;;5.57;3.72;;;;;;;;;;497756;28;1469;-74
2024/03/17 00:13:23;;;;;;;5.82;3.58;;;;;;;;;;498141;28;1109;-74
2024/03/17 00:13:39;;;;;;;6.18;3.80;;;;;;;;;;490387;28;1260;-74
2024/03/17 00:13:54;;;;;;;5.27;3.67;;;;;;;;;;498043;28;942;-74
2024/03/17 00:14:10;;;;;;;5.82;3.67;;;;;;;;;;498392;28;1167;-74
2024/03/17 00:14:28;;;;;;;5.82;3.67;;;;;;;;;;497932;28;1022;-73
2024/03/17 00:14:44;;;;;;;4.70;3.50;;;;;;;;;;494112;28;1112;-73
2024/03/17 00:15:00;;;;;;;4.70;3.67;;;;;;;;;;499494;28;1307;-73
2024/03/17 00:15:16;;;;;;;5.88;3.80;;;;;;;;;;501393;28;1253;-72
2024/03/17 00:15:32;;;;;;;6.60;3.80;;;;;;;;;;496333;28;1480;-73
2024/03/17 00:15:50;;;;;;;5.88;3.72;;;;;;;;;;503342;28;1037;-73
2024/03/17 00:16:06;;;;;;;5.78;3.58;;;;;;;;;;500284;28;1159;-73
2024/03/17 00:16:22;;;;;;;5.72;3.53;;;;;;;;;;503132;28;1206;-73
2024/03/17 00:16:39;;;;;;;5.23;3.50;;;;;;;;;;492054;28;1380;-73
2024/03/17 00:16:54;;;;;;;5.85;3.58;;;;;;;;;;502360;28;1137;-73
2024/03/17 00:17:10;;;;;;;6.57;3.70;;;;;;;;;;499453;28;1062;-73
2024/03/17 00:17:26;;;;;;;6.67;3.67;;;;;;;;;;495319;28;1118;-73
2024/03/17 00:17:41;;;;;;;6.90;3.67;;;;;;;;;;496761;28;1276;-73
2024/03/17 00:17:57;;;;;;;7.13;3.70;;;;;;;;;;498077;28;1401;-73
2024/03/17 00:18:13;;;;;;;6.50;3.80;;;;;;;;;;499134;28;1531;-74
2024/03/17 00:18:28;;;;;;;4.85;3.53;;;;;;;;;;498497;28;1175;-73
2024/03/17 00:18:47;;;;;;;4.23;3.60;;;;;;;;;;499047;28;1372;-73
2024/03/17 00:19:03;;;;;;;5.32;3.70;;;;;;;;;;501421;28;1242;-73
2024/03/17 00:19:18;;;;;;;6.43;3.65;;;;;;;;;;501917;28;935;-72
2024/03/17 00:19:34;;;;;;;7.03;3.73;;;;;;;;;;495091;28;1206;-73
2024/03/17 00:19:49;;;;;;;6.38;3.63;;;;;;;;;;501797;28;1266;-73
2024/03/17 00:20:11;;;;;;;5.13;3.60;;;;;;;;;;501931;28;1138;-73
2024/03/17 00:20:27;;;;;;;5.68;3.60;;;;;;;;;;499474;28;1407;-73
2024/03/17 00:20:43;;;;;;;4.82;3.60;;;;;;;;;;494397;28;1282;-73
2024/03/17 00:20:59;;;;;;;4.73;3.60;;;;;;;;;;498142;28;1041;-74
2024/03/17 00:21:15;;;;;;;6.15;3.85;;;;;;;;;;500082;28;1187;-73
2024/03/17 00:21:30;;;;;;;6.07;3.77;;;;;;;;;;494798;28;1197;-73
2024/03/17 00:21:46;;;;;;;6.77;3.80;;;;;;;;;;499494;28;1203;-73
2024/03/17 00:22:01;;;;;;;7.10;3.95;;;;;;;;;;500388;28;1369;-72
2024/03/17 00:22:17;;;;;;;5.37;3.50;;;;;;;;;;500984;28;918;-73
2024/03/17 00:22:36;;;;;;;5.13;3.40;;;;;;;;;;494882;28;1389;-74
2024/03/17 00:22:52;;;;;;;5.50;3.38;;;;;;;;;;499911;28;1322;-72
2024/03/17 00:23:09;;;;;;;5.43;3.60;;;;;;;;;;499303;28;1877;-72
2024/03/17 00:23:24;;;;;;;4.40;3.33;;;;;;;;;;496828;28;1308;-72
2024/03/17 00:23:40;;;;;;;3.53;2.90;;;;;;;;;;490437;28;1196;-73
2024/03/17 00:23:56;;;;;;;4.00;3.20;;;;;;;;;;496728;28;1138;-73
2024/03/17 00:24:13;;;;;;;5.15;3.28;;;;;;;;;;497108;28;1267;-73
2024/03/17 00:24:34;;;;;;;5.38;3.40;;;;;;;;;;495401;28;1366;-73
2024/03/17 00:24:51;;;;;;;4.75;3.50;;;;;;;;;;497196;28;1457;-72
2024/03/17 00:25:07;;;;;;;4.03;3.22;;;;;;;;;;498134;28;1082;-73
2024/03/17 00:25:23;;;;;;;3.78;3.10;;;;;;;;;;498267;28;1113;-74
2024/03/17 00:25:39;;;;;;;4.20;3.23;;;;;;;;;;490649;28;1283;-73
2024/03/17 00:25:55;;;;;;;4.93;3.30;;;;;;;;;;499665;28;1426;-73
2024/03/17 00:26:11;;;;;;;5.28;3.40;;;;;;;;;;500065;28;1338;-73
2024/03/17 00:26:27;;;;;;;5.37;3.50;;;;;;;;;;498053;28;1432;-73
2024/03/17 00:26:43;;;;;;;5.40;3.83;;;;;;;;;;495091;28;1441;-73
2024/03/17 00:26:58;;;;;;;6.07;3.97;;;;;;;;;;502699;28;1451;-73
2024/03/17 00:27:14;;;;;;;4.78;3.50;;;;;;;;;;502218;28;1476;-72
2024/03/17 00:27:29;;;;;;;4.50;3.40;;;;;;;;;;498679;28;1421;-72
2024/03/17 00:27:46;;;;;;;4.97;3.60;;;;;;;;;;499440;28;935;-73
2024/03/17 00:28:02;;;;;;;4.30;3.45;;;;;;;;;;501938;28;1104;-73
2024/03/17 00:28:18;;;;;;;5.55;3.58;;;;;;;;;;501000;28;1080;-73
2024/03/17 00:28:33;;;;;;;5.77;3.50;;;;;;;;;;496301;28;885;-73
2024/03/17 00:28:51;;;;;;;3.75;3.03;;;;;;;;;;496975;28;1171;-73
2024/03/17 00:29:06;;;;;;;3.97;3.10;;;;;;;;;;499262;28;1736;-73
2024/03/17 00:29:22;;;;;;;4.38;3.15;;;;;;;;;;500274;28;1191;-73
2024/03/17 00:29:38;;;;;;;4.33;3.37;;;;;;;;;;489949;28;1029;-74
2024/03/17 00:29:53;;;;;;;5.00;3.65;;;;;;;;;;499435;28;1120;-73
2024/03/17 00:30:12;;;;;;;5.13;3.42;;;;;;;;;;499583;28;1227;-72
2024/03/17 00:30:27;;;;;;;5.07;3.30;;;;;;;;;;500462;28;1415;-73
2024/03/17 00:30:43;;;;;;;5.32;3.33;;;;;;;;;;497776;28;1293;-73
2024/03/17 00:30:59;;;;;;;6.95;3.80;;;;;;;;;;503320;28;1207;-73
2024/03/17 00:31:15;;;;;;;7.50;4.10;;;;;;;;;;503682;28;1458;-73
2024/03/17 00:31:31;;;;;;;7.35;3.90;;;;;;;;;;499181;28;1415;-72
2024/03/17 00:31:47;;;;;;;6.45;3.90;;;;;;;;;;498265;28;1319;-73
2024/03/17 00:32:03;;;;;;;6.40;3.90;;;;;;;;;;499143;28;1104;-73
2024/03/17 00:32:18;;;;;;;6.03;3.70;;;;;;;;;;498616;28;1515;-73
2024/03/17 00:32:33;;;;;;;5.20;3.25;;;;;;;;;;491533;28;1140;-73
2024/03/17 00:32:49;;;;;;;5.70;3.37;;;;;;;;;;497206;28;1203;-73
2024/03/17 00:33:04;;;;;;;5.43;3.70;;;;;;;;;;497919;28;1205;-73
2024/03/17 00:33:20;;;;;;;5.20;3.77;;;;;;;;;;497671;28;1469;-72
2024/03/17 00:33:36;;;;;;;5.18;3.75;;;;;;;;;;489056;28;1041;-73
2024/03/17 00:33:52;;;;;;;4.68;3.72;;;;;;;;;;499287;28;1321;-73
2024/03/17 00:34:09;;;;;;;5.35;3.88;;;;;;;;;;500094;28;1157;-73
2024/03/17 00:34:24;;;;;;;5.32;3.60;;;;;;;;;;501958;28;1373;-73
2024/03/17 00:34:40;;;;;;;5.22;3.42;;;;;;;;;;491945;28;1205;-73
2024/03/17 00:34:55;;;;;;;5.30;3.67;;;;;;;;;;498544;28;1040;-73
2024/03/17 00:35:14;;;;;;;4.63;3.50;;;;;;;;;;500272;28;1028;-73
2024/03/17 00:35:30;;;;;;;3.90;3.28;;;;;;;;;;495426;28;1256;-73
2024/03/17 00:35:46;;;;;;;4.93;3.45;;;;;;;;;;495112;28;1440;-72
2024/03/17 00:36:01;;;;;;;5.82;3.85;;;;;;;;;;499462;28;1092;-72
2024/03/17 00:36:17;;;;;;;5.40;3.83;;;;;;;;;;499268;28;1167;-73
2024/03/17 00:36:33;;;;;;;6.28;4.03;;;;;;;;;;493976;28;1302;-72
2024/03/17 00:36:48;;;;;;;7.03;4.03;;;;;;;;;;496092;28;1291;-72
2024/03/17 00:37:04;;;;;;;6.53;3.72;;;;;;;;;;497748;28;1326;-73
2024/03/17 00:37:19;;;;;;;5.57;3.70;;;;;;;;;;499229;28;1057;-73
2024/03/17 00:37:38;;;;;;;6.73;3.83;;;;;;;;;;492447;28;1260;-73
2024/03/17 00:37:53;;;;;;;6.78;3.72;;;;;;;;;;497967;28;1189;-73
2024/03/17 00:38:12;;;;;;;5.77;3.73;;;;;;;;;;497987;28;929;-72
2024/03/17 00:38:27;;;;;;;6.13;3.83;;;;;;;;;;496980;28;936;-73
2024/03/17 00:38:43;;;;;;;5.43;3.60;;;;;;;;;;492834;28;1204;-73
2024/03/17 00:39:00;;;;;;;5.30;3.67;;;;;;;;;;497034;28;1354;-73
2024/03/17 00:39:15;;;;;;;4.85;3.53;;;;;;;;;;495200;28;1319;-73
2024/03/17 00:39:32;;;;;;;4.67;3.40;;;;;;;;;;494332;28;1417;-73
2024/03/17 00:39:47;;;;;;;5.18;3.45;;;;;;;;;;499646;28;1329;-73
2024/03/17 00:40:04;;;;;;;4.33;3.40;;;;;;;;;;500732;28;1416;-73
2024/03/17 00:40:19;;;;;;;4.50;3.50;;;;;;;;;;497817;28;1230;-73
2024/03/17 00:40:35;;;;;;;4.27;3.40;;;;;;;;;;492280;28;1056;-73
2024/03/17 00:40:51;;;;;;;4.50;3.23;;;;;;;;;;498687;28;1150;-73
2024/03/17 00:41:06;;;;;;;5.57;3.55;;;;;;;;;;501737;28;989;-73
2024/03/17 00:41:22;;;;;;;6.13;3.90;;;;;;;;;;500975;28;1239;-73
2024/03/17 00:41:38;;;;;;;6.07;4.00;;;;;;;;;;492780;28;1235;-73
2024/03/17 00:41:54;;;;;;;5.85;3.70;;;;;;;;;;500135;28;1290;-73
2024/03/17 00:42:09;;;;;;;5.60;3.45;;;;;;;;;;500287;28;1246;-73
2024/03/17 00:42:25;;;;;;;6.47;3.90;;;;;;;;;;497142;28;1220;-73
2024/03/17 00:42:41;;;;;;;6.57;3.95;;;;;;;;;;492258;28;1361;-73
2024/03/17 00:42:56;;;;;;;5.45;3.45;;;;;;;;;;502907;28;1001;-73
2024/03/17 00:43:12;;;;;;;5.07;3.40;;;;;;;;;;500235;28;1237;-73
2024/03/17 00:43:27;;;;;;;5.68;3.53;;;;;;;;;;497699;28;930;-74
2024/03/17 00:43:43;;;;;;;6.20;3.67;;;;;;;;;;493556;28;1015;-73
2024/03/17 00:44:00;;;;;;;5.82;3.80;;;;;;;;;;494169;28;1200;-73
2024/03/17 00:44:16;;;;;;;5.78;3.78;;;;;;;;;;496097;28;1389;-73
2024/03/17 00:44:31;;;;;;;6.87;3.90;;;;;;;;;;492950;28;1145;-73
2024/03/17 00:44:47;;;;;;;5.73;3.67;;;;;;;;;;494836;28;1349;-73
2024/03/17 00:45:05;;;;;;;5.57;3.40;;;;;;;;;;498456;28;1322;-73
2024/03/17 00:45:20;;;;;;;5.13;3.20;;;;;;;;;;499870;28;1944;-72
2024/03/17 00:45:37;;;;;;;4.38;3.30;;;;;;;;;;490988;28;1136;-73
2024/03/17 00:45:53;;;;;;;4.78;3.50;;;;;;;;;;498728;28;1368;-73
2024/03/17 00:46:08;;;;;;;5.97;3.80;;;;;;;;;;499234;28;954;-72
2024/03/17 00:46:24;;;;;;;5.47;3.90;;;;;;;;;;500955;28;878;-73
2024/03/17 00:46:42;;;;;;;5.13;3.90;;;;;;;;;;493604;28;1049;-72
2024/03/17 00:46:57;;;;;;;6.30;4.10;;;;;;;;;;500097;28;1699;-73
2024/03/17 00:47:13;;;;;;;6.38;4.13;;;;;;;;;;500590;28;1618;-73
2024/03/17 00:47:29;;;;;;;6.20;3.97;;;;;;;;;;498440;28;998;-73
2024/03/17 00:47:45;;;;;;;5.18;3.80;;;;;;;;;;496014;28;1329;-73
2024/03/17 00:48:01;;;;;;;5.00;3.78;;;;;;;;;;501854;28;1223;-73
2024/03/17 00:48:16;;;;;;;6.53;4.10;;;;;;;;;;502659;28;1046;-73
2024/03/17 00:48:32;;;;;;;7.80;4.37;;;;;;;;;;496525;28;1113;-73
2024/03/17 00:48:50;;;;;;;6.53;4.20;;;;;;;;;;500543;28;914;-73
2024/03/17 00:49:05;;;;;;;5.35;4.03;;;;;;;;;;501684;28;1088;-73
2024/03/17 00:49:21;;;;;;;5.70;4.00;;;;;;;;;;501411;28;1255;-73
2024/03/17 00:49:37;;;;;;;6.05;4.10;;;;;;;;;;493478;28;1108;-73
2024/03/17 00:49:52;;;;;;;6.07;4.10;;;;;;;;;;502919;28;1365;-72
2024/03/17 00:50:08;;;;;;;5.63;3.83;;;;;;;;;;503888;28;973;-73
2024/03/17 00:50:24;;;;;;;5.90;3.90;;;;;;;;;;500542;28;1357;-73
2024/03/17 00:50:40;;;;;;;6.03;4.05;;;;;;;;;;495026;28;1261;-73
2024/03/17 00:50:56;;;;;;;5.23;4.00;;;;;;;;;;500010;28;1215;-73
2024/03/17 00:51:12;;;;;;;5.25;3.88;;;;;;;;;;498050;28;1357;-73
2024/03/17 00:51:27;;;;;;;5.83;3.97;;;;;;;;;;497547;28;1229;-73
2024/03/17 00:51:43;;;;;;;6.22;4.07;;;;;;;;;;494105;28;1342;-73
2024/03/17 00:51:58;;;;;;;5.67;4.10;;;;;;;;;;500085;28;1093;-73
2024/03/17 00:52:14;;;;;;;6.20;4.15;;;;;;;;;;498986;28;1731;-73
2024/03/17 00:52:30;;;;;;;6.73;4.00;;;;;;;;;;496628;28;1098;-73
2024/03/17 00:52:45;;;;;;;6.03;3.95;;;;;;;;;;496810;28;1191;-73
2024/03/17 00:53:03;;;;;;;6.68;4.20;;;;;;;;;;501286;28;1037;-72
2024/03/17 00:53:18;;;;;;;6.65;4.03;;;;;;;;;;500499;28;1259;-73
2024/03/17 00:53:33;;;;;;;6.30;4.03;;;;;;;;;;494753;28;1075;-73
2024/03/17 00:53:49;;;;;;;6.13;3.97;;;;;;;;;;499255;28;1009;-73
2024/03/17 00:54:05;;;;;;;6.32;3.90;;;;;;;;;;499350;28;1400;-73
2024/03/17 00:54:20;;;;;;;4.77;3.70;;;;;;;;;;501821;28;999;-72
2024/03/17 00:54:36;;;;;;;6.00;3.72;;;;;;;;;;493104;28;1467;-73
2024/03/17 00:54:51;;;;;;;7.17;4.00;;;;;;;;;;497544;28;1253;-73
2024/03/17 00:55:09;;;;;;;5.75;4.10;;;;;;;;;;499235;28;1284;-72
2024/03/17 00:55:24;;;;;;;6.43;4.00;;;;;;;;;;495546;28;1248;-73
2024/03/17 00:55:40;;;;;;;7.33;4.20;;;;;;;;;;492875;28;1333;-72
2024/03/17 00:56:00;;;;;;;6.72;4.10;;;;;;;;;;501134;28;1280;-73
2024/03/17 00:56:15;;;;;;;5.50;3.60;;;;;;;;;;502363;28;1266;-73
2024/03/17 00:56:31;;;;;;;5.78;3.80;;;;;;;;;;494554;28;1163;-73
2024/03/17 00:56:46;;;;;;;7.20;4.13;;;;;;;;;;496517;28;1243;-72
2024/03/17 00:57:02;;;;;;;7.88;4.30;;;;;;;;;;498434;28;1040;-73
2024/03/17 00:57:17;;;;;;;5.83;4.07;;;;;;;;;;499119;28;1256;-72
2024/03/17 00:57:33;;;;;;;5.47;4.07;;;;;;;;;;492731;28;942;-73
2024/03/17 00:57:48;;;;;;;6.30;4.10;;;;;;;;;;497233;28;1184;-74
2024/03/17 00:58:04;;;;;;;7.15;3.88;;;;;;;;;;500814;28;1131;-73
2024/03/17 00:58:22;;;;;;;7.25;4.00;;;;;;;;;;500086;28;1189;-73
2024/03/17 00:58:38;;;;;;;6.72;4.07;;;;;;;;;;492438;28;1231;-73
2024/03/17 00:58:54;;;;;;;6.40;3.90;;;;;;;;;;499892;28;954;-72
2024/03/17 00:59:09;;;;;;;7.97;4.07;;;;;;;;;;496600;28;1070;-72
2024/03/17 00:59:24;;;;;;;7.20;4.20;;;;;;;;;;496073;28;1338;-73
2024/03/17 00:59:40;;;;;;;5.10;4.10;;;;;;;;;;490818;28;1216;-73
2024/03/17 00:59:56;;;;;;;5.90;3.97;;;;;;;;;;500711;28;1167;-73
2024/03/17 01:00:12;;;;;;;6.38;4.03;;;;;;;;;;501696;28;1190;-73
2024/03/17 01:00:28;;;;;;;6.82;4.20;;;;;;;;;;497899;28;1286;-73
2024/03/17 01:00:43;;;;;;;7.10;4.20;;;;;;;;;;497044;28;1018;-73
2024/03/17 01:00:59;;;;;;;7.50;4.40;;;;;;;;;;500528;28;1005;-73
2024/03/17 01:01:14;;;;;;;7.07;4.55;;;;;;;;;;502258;28;1374;-74
2024/03/17 01:01:30;;;;;;;5.53;4.30;;;;;;;;;;496606;28;1274;-73
2024/03/17 01:01:46;;;;;;;5.57;4.20;;;;;;;;;;495997;28;1317;-73
2024/03/17 01:02:02;;;;;;;6.95;4.30;;;;;;;;;;499776;28;1287;-73
2024/03/17 01:02:17;;;;;;;7.30;4.30;;;;;;;;;;499025;28;1082;-73
2024/03/17 01:02:33;;;;;;;6.20;4.20;;;;;;;;;;493286;28;932;-73
2024/03/17 01:02:48;;;;;;;5.95;4.05;;;;;;;;;;496389;28;1353;-72
2024/03/17 01:03:04;;;;;;;5.80;3.97;;;;;;;;;;500932;28;1200;-73
2024/03/17 01:03:20;;;;;;;6.03;3.90;;;;;;;;;;495331;28;1315;-72
2024/03/17 01:03:35;;;;;;;6.50;4.28;;;;;;;;;;492734;28;1211;-72
2024/03/17 01:03:51;;;;;;;7.10;4.33;;;;;;;;;;496275;28;1349;-73
2024/03/17 01:04:06;;;;;;;7.80;4.28;;;;;;;;;;501156;28;1244;-73
2024/03/17 01:04:22;;;;;;;6.90;4.20;;;;;;;;;;499964;28;1338;-73
2024/03/17 01:04:37;;;;;;;6.85;4.10;;;;;;;;;;492073;28;1256;-73
2024/03/17 01:04:53;;;;;;;6.47;3.90;;;;;;;;;;497537;28;932;-73
2024/03/17 01:05:08;;;;;;;6.38;3.85;;;;;;;;;;498266;28;1319;-72
2024/03/17 01:05:24;;;;;;;7.07;4.00;;;;;;;;;;497387;28;2033;-73
2024/03/17 01:05:44;;;;;;;7.40;4.30;;;;;;;;;;490877;28;1321;-73
2024/03/17 01:05:59;;;;;;;6.50;4.40;;;;;;;;;;499555;28;957;-73
2024/03/17 01:06:15;;;;;;;6.03;4.10;;;;;;;;;;501315;28;1049;-73
2024/03/17 01:06:32;;;;;;;5.60;4.00;;;;;;;;;;495890;28;1240;-73
2024/03/17 01:06:47;;;;;;;6.43;3.83;;;;;;;;;;496002;28;1164;-74
2024/03/17 01:07:04;;;;;;;5.53;3.70;;;;;;;;;;499647;28;993;-73
2024/03/17 01:07:19;;;;;;;4.88;3.85;;;;;;;;;;501040;28;1073;-73
2024/03/17 01:07:35;;;;;;;6.43;4.22;;;;;;;;;;497141;28;1326;-73
2024/03/17 01:07:53;;;;;;;7.13;4.40;;;;;;;;;;500629;28;1440;-73
2024/03/17 01:08:09;;;;;;;6.68;4.20;;;;;;;;;;501713;28;1238;-73
2024/03/17 01:08:24;;;;;;;6.35;4.13;;;;;;;;;;502723;28;1004;-73
2024/03/17 01:08:40;;;;;;;6.75;4.30;;;;;;;;;;497686;28;1328;-73
2024/03/17 01:08:56;;;;;;;6.83;4.17;;;;;;;;;;501106;28;1172;-72
2024/03/17 01:09:11;;;;;;;6.30;4.00;;;;;;;;;;498085;28;1210;-73
2024/03/17 01:09:27;;;;;;;7.30;4.20;;;;;;;;;;498445;28;1071;-73
2024/03/17 01:09:42;;;;;;;6.93;4.00;;;;;;;;;;494446;28;1233;-73
2024/03/17 01:09:58;;;;;;;5.95;3.83;;;;;;;;;;499501;28;1231;-72
2024/03/17 01:10:14;;;;;;;6.17;4.20;;;;;;;;;;497803;28;1040;-73
2024/03/17 01:10:29;;;;;;;6.50;4.20;;;;;;;;;;499316;28;1057;-74
2024/03/17 01:10:49;;;;;;;6.78;4.00;;;;;;;;;;494401;28;1334;-72
2024/03/17 01:11:08;;;;;;;6.38;4.22;;;;;;;;;;497648;28;1494;-72
2024/03/17 01:11:24;;;;;;;7.25;4.30;;;;;;;;;;498469;28;1329;-73
2024/03/17 01:11:40;;;;;;;8.18;4.20;;;;;;;;;;490900;28;1353;-73
2024/03/17 01:11:56;;;;;;;7.13;4.20;;;;;;;;;;499448;28;933;-73
2024/03/17 01:12:11;;;;;;;6.95;4.10;;;;;;;;;;499852;28;1515;-73
2024/03/17 01:12:27;;;;;;;6.22;4.00;;;;;;;;;;499493;28;897;-73
2024/03/17 01:12:42;;;;;;;5.47;4.03;;;;;;;;;;493264;28;1078;-73
2024/03/17 01:12:58;;;;;;;5.53;4.07;;;;;;;;;;498494;28;1417;-73
2024/03/17 01:13:13;;;;;;;6.37;4.30;;;;;;;;;;498442;28;889;-73
2024/03/17 01:13:30;;;;;;;8.32;4.63;;;;;;;;;;498331;28;972;-73
2024/03/17 01:13:46;;;;;;;8.48;4.57;;;;;;;;;;497016;28;1270;-71
2024/03/17 01:14:01;;;;;;;7.85;4.35;;;;;;;;;;499038;28;1170;-73
2024/03/17 01:14:17;;;;;;;8.38;4.20;;;;;;;;;;498668;28;1176;-72
2024/03/17 01:14:35;;;;;;;6.90;4.13;;;;;;;;;;494296;28;1191;-73
2024/03/17 01:14:52;;;;;;;5.82;4.18;;;;;;;;;;500409;28;1497;-73
2024/03/17 01:15:08;;;;;;;6.75;4.30;;;;;;;;;;501573;28;1178;-72
2024/03/17 01:15:23;;;;;;;6.95;4.40;;;;;;;;;;499255;28;1225;-73
2024/03/17 01:15:39;;;;;;;6.18;4.15;;;;;;;;;;492803;28;1211;-73
2024/03/17 01:15:55;;;;;;;6.85;3.88;;;;;;;;;;501367;28;1282;-73
2024/03/17 01:16:10;;;;;;;7.20;4.00;;;;;;;;;;497586;28;1149;-73
2024/03/17 01:16:26;;;;;;;6.22;4.30;;;;;;;;;;496777;28;1145;-73
2024/03/17 01:16:42;;;;;;;6.13;4.30;;;;;;;;;;492600;28;1183;-73
2024/03/17 01:16:59;;;;;;;6.18;4.30;;;;;;;;;;495413;28;1203;-73
2024/03/17 01:17:15;;;;;;;5.72;4.40;;;;;;;;;;496715;28;1290;-73
2024/03/17 01:17:31;;;;;;;6.18;4.45;;;;;;;;;;496372;28;1370;-73
2024/03/17 01:17:46;;;;;;;8.82;4.68;;;;;;;;;;495430;28;1069;-73
2024/03/17 01:18:04;;;;;;;8.60;4.60;;;;;;;;;;499571;28;1171;-73
2024/03/17 01:18:19;;;;;;;6.97;4.45;;;;;;;;;;497156;28;1567;-73
2024/03/17 01:18:37;;;;;;;7.60;4.47;;;;;;;;;;494545;28;889;-72
2024/03/17 01:18:52;;;;;;;6.88;4.40;;;;;;;;;;500024;28;1413;-73
2024/03/17 01:19:08;;;;;;;6.93;4.57;;;;;;;;;;498453;28;1168;-73
2024/03/17 01:19:24;;;;;;;6.53;4.50;;;;;;;;;;498793;28;1057;-73
2024/03/17 01:19:40;;;;;;;6.07;4.30;;;;;;;;;;494855;28;1433;-73
2024/03/17 01:19:56;;;;;;;6.55;4.55;;;;;;;;;;499275;28;1326;-73
2024/03/17 01:20:11;;;;;;;6.90;4.50;;;;;;;;;;500590;28;1314;-73
2024/03/17 01:20:27;;;;;;;5.90;4.28;;;;;;;;;;497542;28;1326;-73
2024/03/17 01:20:42;;;;;;;6.40;4.50;;;;;;;;;;494193;28;1153;-73
2024/03/17 01:20:58;;;;;;;7.88;4.60;;;;;;;;;;500467;28;1311;-73
2024/03/17 01:21:13;;;;;;;7.40;4.57;;;;;;;;;;499154;28;1291;-73
2024/03/17 01:21:29;;;;;;;6.63;4.60;;;;;;;;;;497976;28;1207;-74
2024/03/17 01:21:44;;;;;;;6.57;4.60;;;;;;;;;;496702;28;1344;-74
2024/03/17 01:22:00;;;;;;;5.93;4.32;;;;;;;;;;500524;28;1477;-73
2024/03/17 01:22:16;;;;;;;6.28;4.20;;;;;;;;;;498903;28;1460;-72
2024/03/17 01:22:32;;;;;;;6.72;4.40;;;;;;;;;;493979;28;1397;-74
2024/03/17 01:22:48;;;;;;;7.25;4.25;;;;;;;;;;497881;28;1238;-72
2024/03/17 01:23:04;;;;;;;7.75;4.30;;;;;;;;;;502279;28;1366;-73
2024/03/17 01:23:20;;;;;;;8.32;4.30;;;;;;;;;;502381;28;1426;-73
2024/03/17 01:23:35;;;;;;;7.55;4.30;;;;;;;;;;495428;28;1401;-73
2024/03/17 01:23:51;;;;;;;8.10;4.50;;;;;;;;;;501248;28;1239;-74
2024/03/17 01:24:07;;;;;;;7.43;4.45;;;;;;;;;;504572;28;1325;-73
2024/03/17 01:24:22;;;;;;;5.97;4.30;;;;;;;;;;500949;28;1290;-72
2024/03/17 01:24:41;;;;;;;5.97;4.13;;;;;;;;;;492792;28;1082;-73
2024/03/17 01:24:57;;;;;;;6.03;4.10;;;;;;;;;;499349;28;1287;-73
2024/03/17 01:25:13;;;;;;;6.93;4.50;;;;;;;;;;497812;28;1929;-73
2024/03/17 01:25:32;;;;;;;7.00;4.40;;;;;;;;;;495590;28;1304;-73
2024/03/17 01:25:48;;;;;;;5.90;4.10;;;;;;;;;;495328;28;1032;-73
2024/03/17 01:26:03;;;;;;;6.43;4.28;;;;;;;;;;496661;28;1299;-73
2024/03/17 01:26:19;;;;;;;7.40;4.33;;;;;;;;;;497875;28;1034;-73
2024/03/17 01:26:35;;;;;;;8.20;4.30;;;;;;;;;;493278;28;1204;-73
2024/03/17 01:26:50;;;;;;;7.30;4.22;;;;;;;;;;499428;28;1409;-73
2024/03/17 01:27:06;;;;;;;5.38;4.20;;;;;;;;;;501087;28;938;-74
2024/03/17 01:27:22;;;;;;;5.50;4.20;;;;;;;;;;501173;28;1165;-73
2024/03/17 01:27:37;;;;;;;6.18;4.13;;;;;;;;;;494351;28;1211;-73
2024/03/17 01:27:53;;;;;;;6.85;4.15;;;;;;;;;;500603;28;977;-72
2024/03/17 01:28:08;;;;;;;6.47;4.10;;;;;;;;;;501855;28;1353;-73
2024/03/17 01:28:24;;;;;;;6.03;4.25;;;;;;;;;;502198;28;1504;-72
2024/03/17 01:28:40;;;;;;;6.20;4.33;;;;;;;;;;494715;28;900;-73
2024/03/17 01:28:55;;;;;;;6.25;4.20;;;;;;;;;;501909;28;1521;-72
2024/03/17 01:29:11;;;;;;;6.67;4.17;;;;;;;;;;501023;28;1202;-73
2024/03/17 01:29:27;;;;;;;5.90;3.95;;;;;;;;;;500715;28;889;-73
2024/03/17 01:29:45;;;;;;;6.85;4.07;;;;;;;;;;493889;28;1315;-73
2024/03/17 01:30:01;;;;;;;6.03;4.30;;;;;;;;;;501002;28;1426;-72
2024/03/17 01:30:16;;;;;;;5.77;4.10;;;;;;;;;;498930;28;1414;-73
2024/03/17 01:30:34;;;;;;;6.75;4.13;;;;;;;;;;496194;28;1027;-73
2024/03/17 01:30:49;;;;;;;6.75;4.30;;;;;;;;;;496724;28;1287;-72
2024/03/17 01:31:09;;;;;;;6.05;4.30;;;;;;;;;;498980;28;1377;-73
2024/03/17 01:31:24;;;;;;;5.57;4.00;;;;;;;;;;497634;28;1247;-73
2024/03/17 01:31:40;;;;;;;5.80;4.10;;;;;;;;;;494237;28;1290;-73
2024/03/17 01:31:55;;;;;;;6.77;4.30;;;;;;;;;;501315;28;1354;-73
2024/03/17 01:32:11;;;;;;;6.97;4.30;;;;;;;;;;500417;28;1139;-73
2024/03/17 01:32:27;;;;;;;6.50;4.25;;;;;;;;;;497475;28;956;-73
2024/03/17 01:32:42;;;;;;;6.50;4.20;;;;;;;;;;496003;28;1195;-72
2024/03/17 01:32:59;;;;;;;7.18;4.20;;;;;;;;;;500639;28;1258;-73
2024/03/17 01:33:15;;;;;;;6.63;4.30;;;;;;;;;;499380;28;1144;-74
2024/03/17 01:33:31;;;;;;;6.20;4.32;;;;;;;;;;496097;28;945;-72
2024/03/17 01:33:46;;;;;;;6.87;4.30;;;;;;;;;;498618;28;1321;-73
2024/03/17 01:34:02;;;;;;;7.47;4.22;;;;;;;;;;501101;28;1077;-73
2024/03/17 01:34:19;;;;;;;7.03;4.27;;;;;;;;;;499593;28;1250;-73
2024/03/17 01:34:34;;;;;;;6.68;4.32;;;;;;;;;;493776;28;1261;-73
2024/03/17 01:34:51;;;;;;;5.63;4.18;;;;;;;;;;495993;28;1467;-73
2024/03/17 01:35:06;;;;;;;5.05;4.00;;;;;;;;;;499984;28;1322;-73
2024/03/17 01:35:22;;;;;;;7.70;4.60;;;;;;;;;;500107;28;1200;-74
2024/03/17 01:35:38;;;;;;;7.70;4.70;;;;;;;;;;494754;28;1414;-73
2024/03/17 01:35:54;;;;;;;5.80;4.22;;;;;;;;;;501933;28;1089;-73
2024/03/17 01:36:09;;;;;;;6.43;4.23;;;;;;;;;;503184;28;1032;-73
2024/03/17 01:36:25;;;;;;;6.60;4.30;;;;;;;;;;500281;28;1586;-73
2024/03/17 01:36:41;;;;;;;6.18;4.18;;;;;;;;;;495306;28;1196;-73
2024/03/17 01:36:56;;;;;;;5.73;4.10;;;;;;;;;;499507;28;1022;-74
2024/03/17 01:37:12;;;;;;;5.80;4.20;;;;;;;;;;500319;28;949;-73
2024/03/17 01:37:31;;;;;;;7.33;4.50;;;;;;;;;;497114;28;1200;-73
2024/03/17 01:37:47;;;;;;;7.72;4.50;;;;;;;;;;496727;28;1158;-73
2024/03/17 01:38:03;;;;;;;6.85;4.20;;;;;;;;;;496790;28;1081;-73
2024/03/17 01:38:18;;;;;;;6.07;4.10;;;;;;;;;;495844;28;1275;-73
2024/03/17 01:38:34;;;;;;;5.47;4.07;;;;;;;;;;490757;28;1130;-74
2024/03/17 01:38:50;;;;;;;5.70;4.00;;;;;;;;;;497986;28;1248;-72
2024/03/17 01:39:05;;;;;;;5.85;3.95;;;;;;;;;;498969;28;1278;-73